CheckWX is a tool to help pilots better visualize weather data.  It is not intended as a substitute for an official pre-flight weather briefing.

18:50:43 UTC

KITH METAR
Ithaca Tompkins Regional Airport
Ithaca, New York, USA
Current

55 mins ago

KITH 281756Z 31012KT 2SM R32/3500VP6000FT -SN BR OVC007 M01/M02 A2985 RMK AO2 SNB05 SLP121 P0000 60000 T10111017 11006 21022 58005
Observed
Jan-28 @ 17:56 UTC
Wind
  • 310° at 12 KTS
Visibility
2 SM
Flight Rules
IFR
Conditions
Light Snow, Mist
Cloud Levels
  • Overcast at 700' AGL
Temperature
-1°C / 30°F
Dewpoint
-2°C / 28°F
Humidity
93%
Altimeter
29.85" Hg
Pressure
1010.82 hPa
Current Rain
0.01"
Previous

2 hours ago

KITH 281656Z 31013G17KT 9SM OVC007 M01/M02 A2987 RMK AO2 UPB06UPEMMSNE06B22E53 SLP125 P0000 T10111017
Observed
Jan-28 @ 16:56 UTC
Wind
  • 310° at 13 KTS
  • Gusting to 17 KTS
Visibility
9 SM
Flight Rules
IFR
Cloud Levels
  • Overcast at 700' AGL
Temperature
-1°C / 30°F
Dewpoint
-2°C / 28°F
Humidity
93%
Altimeter
29.87" Hg
Pressure
1011.52 hPa
Current Rain
0.01"
Previous

3 hours ago

KITH 281556Z 30013KT 3SM -SN BR OVC007 M01/M02 A2987 RMK AO2 SNB1458 CIG 005V010 SLP128 P0000 T10111017
Observed
Jan-28 @ 15:56 UTC
Wind
  • 300° at 13 KTS
Visibility
3 SM
Flight Rules
IFR
Conditions
Light Snow, Mist
Cloud Levels
  • Overcast at 700' AGL
Temperature
-1°C / 30°F
Dewpoint
-2°C / 28°F
Humidity
93%
Altimeter
29.87" Hg
Pressure
1011.52 hPa
Current Rain
0.01"